createdAt,value
2022-09-14T00:01:14.424Z,12.50
2022-09-14T00:06:16.862Z,12.47
2022-09-14T00:11:21.062Z,12.43
2022-09-14T00:16:28.386Z,12.36
2022-09-14T00:21:32.376Z,12.32
2022-09-14T00:26:35.491Z,12.27
2022-09-14T00:31:39.632Z,12.24
2022-09-14T00:36:47.419Z,12.21
2022-09-14T00:41:52.338Z,12.23
2022-09-14T00:46:58.680Z,12.23
2022-09-14T00:52:08.911Z,12.23
2022-09-14T00:57:12.387Z,12.26
2022-09-14T01:02:16.009Z,12.28
2022-09-14T01:07:23.621Z,12.24
2022-09-14T01:12:40.577Z,12.22
2022-09-14T01:18:00.950Z,12.19
2022-09-14T01:23:28.500Z,12.15
2022-09-14T01:28:31.197Z,12.15
2022-09-14T01:33:40.347Z,12.14
2022-09-14T01:38:49.134Z,12.12
2022-09-14T01:43:58.019Z,12.09
2022-09-14T01:49:17.127Z,12.06
2022-09-14T01:54:28.024Z,12.03
2022-09-14T01:59:37.362Z,12.00
2022-09-14T02:05:04.141Z,11.96
2022-09-14T02:10:12.580Z,11.94
2022-09-14T02:15:16.061Z,11.91
2022-09-14T02:20:30.979Z,11.89
2022-09-14T02:25:36.429Z,11.88
2022-09-14T02:30:57.856Z,11.86
2022-09-14T02:36:08.452Z,11.87
2022-09-14T02:41:31.603Z,11.87
2022-09-14T02:46:34.528Z,11.88
2022-09-14T02:51:50.824Z,11.87
2022-09-14T02:56:53.554Z,11.87
2022-09-14T03:01:57.196Z,11.86
2022-09-14T03:07:00.027Z,11.83
2022-09-14T03:12:03.016Z,11.83
2022-09-14T03:17:06.822Z,11.80
2022-09-14T03:22:09.518Z,11.77
2022-09-14T03:27:12.493Z,11.74
2022-09-14T03:32:15.230Z,11.71
2022-09-14T03:37:17.975Z,11.71
2022-09-14T03:42:20.711Z,11.70
2022-09-14T03:47:23.631Z,11.70
2022-09-14T03:52:26.385Z,11.72
2022-09-14T03:57:29.383Z,11.71
2022-09-14T04:02:32.244Z,11.73
2022-09-14T04:07:35.831Z,11.78
2022-09-14T04:12:39.715Z,11.97
2022-09-14T04:17:42.459Z,12.21
2022-09-14T04:22:46.122Z,12.33
2022-09-14T04:28:04.223Z,12.40
2022-09-14T04:33:12.618Z,12.51
2022-09-14T04:38:15.293Z,12.61
2022-09-14T04:43:18.004Z,12.71
2022-09-14T04:48:21.053Z,12.84
2022-09-14T04:53:23.850Z,13.02
2022-09-14T04:58:28.715Z,13.32
2022-09-14T05:03:31.466Z,13.54
2022-09-14T05:08:36.810Z,13.71
2022-09-14T05:13:39.524Z,13.83
2022-09-14T05:18:44.084Z,13.94
2022-09-14T05:23:47.433Z,14.12
2022-09-14T05:28:53.054Z,14.32
2022-09-14T05:33:55.932Z,14.53
2022-09-14T05:38:59.008Z,14.64
2022-09-14T05:44:04.053Z,14.72
2022-09-14T05:49:07.183Z,15.52
2022-09-14T05:54:11.881Z,17.70
2022-09-14T05:59:16.226Z,19.38
2022-09-14T06:04:18.994Z,20.28
2022-09-14T06:09:21.789Z,21.02
2022-09-14T06:14:24.619Z,20.30
2022-09-14T06:19:27.431Z,20.95
2022-09-14T06:24:30.174Z,20.37
2022-09-14T06:29:33.013Z,19.73
2022-09-14T06:34:36.073Z,19.17
2022-09-14T06:39:38.951Z,18.73
2022-09-14T06:44:41.791Z,18.23
2022-09-14T06:49:44.611Z,18.06
2022-09-14T06:54:50.816Z,18.40
2022-09-14T06:59:55.193Z,18.49
2022-09-14T07:05:07.539Z,18.46
2022-09-14T07:10:13.518Z,18.78
2022-09-14T07:15:17.168Z,18.85
2022-09-14T07:20:20.145Z,18.70
2022-09-14T07:25:27.393Z,18.90
2022-09-14T07:30:35.850Z,21.01
2022-09-14T07:35:38.641Z,21.39
2022-09-14T07:40:41.649Z,20.95
2022-09-14T07:45:45.617Z,20.16
2022-09-14T07:50:48.478Z,20.42
2022-09-14T07:55:52.109Z,20.33
2022-09-14T08:01:03.683Z,21.10
2022-09-14T08:06:13.305Z,21.07
2022-09-14T08:11:19.531Z,20.49
2022-09-14T08:16:24.028Z,20.17
2022-09-14T08:21:32.244Z,19.98
2022-09-14T08:26:40.125Z,19.74
2022-09-14T08:31:46.015Z,19.81
2022-09-14T08:36:49.882Z,19.93
2022-09-14T08:41:59.539Z,20.07
2022-09-14T08:47:04.081Z,20.19
2022-09-14T08:52:15.000Z,20.11
2022-09-14T08:57:25.191Z,19.85
2022-09-14T09:03:14.490Z,19.74
2022-09-14T09:08:25.871Z,19.28
2022-09-14T09:13:33.392Z,19.21
2022-09-14T09:18:36.088Z,19.70
2022-09-14T09:23:40.172Z,20.06
2022-09-14T09:28:49.623Z,20.17
2022-09-14T09:33:55.689Z,20.16
2022-09-14T09:39:04.855Z,20.16
2022-09-14T09:44:10.523Z,20.34
2022-09-14T09:49:21.029Z,20.48
2022-09-14T09:54:33.956Z,20.57
2022-09-14T09:59:41.995Z,20.60
2022-09-14T10:05:11.286Z,20.52
2022-09-14T10:10:16.439Z,20.66
2022-09-14T10:15:29.627Z,20.88
2022-09-14T10:20:33.572Z,21.06
2022-09-14T10:25:36.642Z,21.08
2022-09-14T10:30:49.394Z,20.83
2022-09-14T10:36:01.817Z,20.88
2022-09-14T10:41:25.644Z,20.88
2022-09-14T10:46:46.747Z,20.85
2022-09-14T10:52:25.625Z,20.78
2022-09-14T10:57:40.613Z,20.60
2022-09-14T11:03:36.926Z,20.22
2022-09-14T11:09:03.652Z,19.70
2022-09-14T11:14:29.340Z,19.36
2022-09-14T11:20:11.584Z,19.12
2022-09-14T11:25:25.425Z,18.90
2022-09-14T11:30:39.609Z,18.75
2022-09-14T11:36:17.838Z,18.68
2022-09-14T11:41:38.142Z,18.86
2022-09-14T11:46:47.035Z,19.06
2022-09-14T11:51:59.270Z,19.25
2022-09-14T11:57:04.127Z,19.56
2022-09-14T12:02:25.297Z,19.89
2022-09-14T12:07:40.846Z,20.07
2022-09-14T12:12:44.975Z,20.07
2022-09-14T12:17:55.411Z,19.98
2022-09-14T12:23:30.573Z,19.92
2022-09-14T12:28:37.269Z,19.90
2022-09-14T12:33:41.069Z,19.87
2022-09-14T12:38:50.051Z,19.74
2022-09-14T12:43:55.494Z,19.76
2022-09-14T12:49:03.347Z,19.94
2022-09-14T12:54:09.193Z,20.10
2022-09-14T12:59:18.232Z,20.26
2022-09-14T13:04:28.558Z,20.26
2022-09-14T13:09:33.194Z,20.33
2022-09-14T13:14:50.445Z,20.57
2022-09-14T13:20:04.150Z,20.58
2022-09-14T13:25:26.833Z,20.44
2022-09-14T13:30:32.049Z,20.28
2022-09-14T13:35:36.141Z,20.10
2022-09-14T13:40:39.054Z,19.94
2022-09-14T13:45:43.522Z,19.75
2022-09-14T13:50:52.536Z,19.68
2022-09-14T13:55:55.400Z,19.55
2022-09-14T14:01:04.518Z,19.41
2022-09-14T14:06:38.121Z,19.38
2022-09-14T14:11:55.218Z,19.30
2022-09-14T14:17:13.250Z,19.17
2022-09-14T14:22:15.920Z,19.13
2022-09-14T14:27:37.825Z,19.15
2022-09-14T14:32:40.702Z,19.10
2022-09-14T14:37:43.643Z,19.05
2022-09-14T14:42:47.560Z,18.89
2022-09-14T14:47:53.633Z,18.66
2022-09-14T14:52:57.246Z,18.48
2022-09-14T14:58:02.617Z,18.34
2022-09-14T15:03:05.771Z,18.24
2022-09-14T15:08:12.799Z,18.22
2022-09-14T15:13:15.761Z,18.24
2022-09-14T15:18:18.681Z,18.25
2022-09-14T15:23:21.436Z,18.21
2022-09-14T15:28:24.757Z,18.11
2022-09-14T15:33:27.649Z,18.00
2022-09-14T15:38:30.807Z,17.91
2022-09-14T15:43:34.012Z,17.86
2022-09-14T15:48:36.746Z,17.78
2022-09-14T15:53:39.936Z,17.70
2022-09-14T15:58:47.831Z,17.61
2022-09-14T16:03:57.463Z,17.52
2022-09-14T16:09:03.638Z,17.42
2022-09-14T16:14:08.617Z,17.32
2022-09-14T16:19:13.864Z,17.24
2022-09-14T16:24:19.412Z,17.16
2022-09-14T16:29:24.444Z,17.10
2022-09-14T16:34:29.739Z,16.97
2022-09-14T16:39:34.938Z,16.81
2022-09-14T16:44:37.941Z,16.68
2022-09-14T16:49:40.815Z,16.59
2022-09-14T16:54:43.794Z,16.48
2022-09-14T16:59:46.948Z,16.35
2022-09-14T17:04:55.969Z,16.22
2022-09-14T17:10:01.074Z,16.09
2022-09-14T17:15:04.180Z,15.94
2022-09-14T17:20:08.917Z,15.81
2022-09-14T17:25:16.229Z,15.68
2022-09-14T17:30:19.618Z,15.55
2022-09-14T17:35:22.707Z,15.43
2022-09-14T17:40:26.021Z,15.34
2022-09-14T17:45:28.778Z,15.25
2022-09-14T17:50:32.571Z,15.17
2022-09-14T17:55:35.315Z,15.06
2022-09-14T18:00:38.670Z,14.95
2022-09-14T18:05:41.524Z,14.85
2022-09-14T18:10:44.581Z,14.76
2022-09-14T18:15:47.668Z,14.72
2022-09-14T18:20:50.690Z,14.71
2022-09-14T18:25:55.052Z,14.72
2022-09-14T18:31:10.445Z,14.70
2022-09-14T18:36:15.599Z,14.67
2022-09-14T18:41:20.465Z,14.64
2022-09-14T18:46:27.819Z,14.57
2022-09-14T18:51:32.924Z,14.53
2022-09-14T18:56:38.411Z,14.52
2022-09-14T19:01:43.717Z,14.55
2022-09-14T19:06:46.769Z,14.57
2022-09-14T19:11:50.376Z,14.55
2022-09-14T19:16:57.794Z,14.49
2022-09-14T19:22:02.260Z,14.38
2022-09-14T19:27:05.118Z,14.25
2022-09-14T19:32:07.887Z,14.12
2022-09-14T19:37:10.709Z,14.01
2022-09-14T19:42:13.460Z,13.93
2022-09-14T19:47:16.466Z,13.91
2022-09-14T19:52:19.215Z,13.88
2022-09-14T19:57:21.967Z,13.87
2022-09-14T20:02:24.924Z,13.88
2022-09-14T20:07:28.723Z,13.94
2022-09-14T20:12:31.443Z,13.99
2022-09-14T20:17:34.210Z,14.03
2022-09-14T20:22:38.214Z,14.02
2022-09-14T20:27:41.026Z,14.03
2022-09-14T20:32:43.821Z,14.08
2022-09-14T20:37:46.674Z,14.11
2022-09-14T20:42:49.376Z,14.11
2022-09-14T20:47:54.605Z,14.10
2022-09-14T20:52:57.311Z,14.08
2022-09-14T20:58:00.020Z,14.09
2022-09-14T21:03:02.848Z,14.11
2022-09-14T21:08:05.797Z,14.14
2022-09-14T21:13:08.592Z,14.12
2022-09-14T21:18:11.566Z,14.11
2022-09-14T21:23:14.280Z,14.11
2022-09-14T21:28:17.062Z,14.13
2022-09-14T21:33:19.936Z,14.16
2022-09-14T21:38:22.690Z,14.17
2022-09-14T21:43:25.894Z,14.15
2022-09-14T21:48:29.175Z,14.15
2022-09-14T21:53:32.822Z,14.15
2022-09-14T21:58:36.696Z,14.16
2022-09-14T22:03:40.486Z,14.15
2022-09-14T22:08:43.878Z,14.15
2022-09-14T22:13:47.600Z,14.15
2022-09-14T22:18:53.505Z,14.14
2022-09-14T22:23:59.294Z,14.13
2022-09-14T22:29:02.688Z,14.13
2022-09-14T22:34:06.666Z,14.12
2022-09-14T22:39:10.787Z,14.11
2022-09-14T22:44:13.710Z,14.14
2022-09-14T22:49:16.828Z,14.16
2022-09-14T22:54:19.613Z,14.15
2022-09-14T22:59:22.341Z,14.11
2022-09-14T23:04:27.473Z,14.09
2022-09-14T23:09:30.181Z,14.09
2022-09-14T23:14:32.935Z,14.09
2022-09-14T23:19:35.651Z,14.06
2022-09-14T23:24:38.343Z,14.02
2022-09-14T23:29:41.101Z,14.00
2022-09-14T23:34:43.893Z,13.97
2022-09-14T23:39:46.651Z,13.95
2022-09-14T23:44:49.491Z,13.94
2022-09-14T23:49:52.201Z,13.93
2022-09-14T23:54:55.201Z,13.94
2022-09-14T23:59:58.903Z,13.95
